Time;durP1;ratioP1;P1;durP2;ratioP2;P2;SDS_P1;SDS_P2;PMS_P1;PMS_P2;Temp;Humidity;BMP_temperature;BMP_pressure;BME280_temperature;BME280_humidity;BME280_pressure;Samples;Min_cycle;Max_cycle;Signal;HPM_P1;HPM_P2
2021/09/20 00:04:40;;;;;;;27.22;18.20;;;;;;;10.62;96.73;98990.20;4324736;80;21079;-83
2021/09/20 00:10:52;;;;;;;28.73;18.70;;;;;;;10.63;96.87;98989.03;4344362;79;21024;-80
2021/09/20 00:16:53;;;;;;;32.45;18.65;;;;;;;10.64;96.89;98986.52;4315063;80;21602;-80
2021/09/20 00:22:55;;;;;;;32.15;19.60;;;;;;;10.63;96.88;98987.66;4326771;80;21110;-80
2021/09/20 00:28:56;;;;;;;33.67;18.30;;;;;;;10.60;96.79;98978.84;4319646;80;21574;-80
2021/09/20 00:34:58;;;;;;;28.47;17.85;;;;;;;10.57;96.82;98979.59;4319756;80;21028;-80
2021/09/20 00:40:59;;;;;;;30.95;18.32;;;;;;;10.58;96.93;98987.23;4205626;83;21030;-80
2021/09/20 00:47:00;;;;;;;31.57;19.70;;;;;;;10.60;97.14;98982.17;4228168;82;21051;-81
2021/09/20 00:53:02;;;;;;;29.60;19.52;;;;;;;10.61;97.07;98979.06;4152211;84;21077;-80
2021/09/20 00:59:05;;;;;;;29.65;19.95;;;;;;;10.60;97.04;98974.73;4230110;81;21031;-80
2021/09/20 01:05:10;;;;;;;31.62;20.20;;;;;;;10.60;97.22;98976.09;4170757;83;21061;-81
2021/09/20 01:11:11;;;;;;;32.35;20.35;;;;;;;10.60;97.26;98974.73;4317585;79;21387;-82
2021/09/20 01:17:12;;;;;;;30.23;19.82;;;;;;;10.60;97.24;98976.70;4341786;80;21063;-82
2021/09/20 01:23:13;;;;;;;30.17;19.65;;;;;;;10.58;97.37;98986.66;4300773;80;21013;-82
2021/09/20 01:29:15;;;;;;;37.17;19.98;;;;;;;10.58;97.52;98983.12;4305075;80;21016;-81
2021/09/20 01:35:19;;;;;;;29.90;18.62;;;;;;;10.55;97.51;98983.30;4321504;80;21068;-81
2021/09/20 01:41:20;;;;;;;25.10;17.17;;;;;;;10.55;97.51;98984.67;4320696;80;21052;-81
2021/09/20 01:47:23;;;;;;;28.25;16.93;;;;;;;10.55;97.49;98981.94;4326950;80;21102;-81
2021/09/20 01:53:24;;;;;;;29.82;16.23;;;;;;;10.53;97.42;98986.98;4332757;80;21048;-82
2021/09/20 01:59:26;;;;;;;27.15;14.73;;;;;;;10.49;97.38;98980.67;4324515;80;21163;-81
2021/09/20 02:05:27;;;;;;;25.62;14.40;;;;;;;10.47;97.59;98984.38;4205714;83;20994;-82
2021/09/20 02:11:28;;;;;;;19.73;12.93;;;;;;;10.47;97.33;98989.06;4218546;82;20992;-82
2021/09/20 02:17:30;;;;;;;21.87;13.28;;;;;;;10.41;97.48;98983.14;4161698;84;20996;-81
2021/09/20 02:23:33;;;;;;;20.52;13.10;;;;;;;10.43;97.58;98989.02;4162191;84;21054;-82
2021/09/20 02:29:34;;;;;;;19.15;12.73;;;;;;;10.44;97.34;98979.66;4179610;83;21079;-81
2021/09/20 02:35:47;;;;;;;18.70;12.35;;;;;;;10.40;97.34;98977.45;4173953;84;21067;-81
2021/09/20 02:41:49;;;;;;;20.40;12.73;;;;;;;10.40;97.39;98987.02;4167255;84;21075;-81
2021/09/20 02:47:51;;;;;;;22.27;13.60;;;;;;;10.37;97.29;98989.71;4152859;84;21088;-81
2021/09/20 02:53:53;;;;;;;21.95;12.20;;;;;;;10.35;97.62;98981.11;4171039;83;21545;-82
2021/09/20 02:59:54;;;;;;;26.45;13.10;;;;;;;10.37;97.59;98978.20;4340876;80;21078;-81
2021/09/20 03:05:55;;;;;;;18.95;12.88;;;;;;;10.34;97.46;98969.94;4357413;80;21009;-81
2021/09/20 03:11:57;;;;;;;22.45;11.80;;;;;;;10.34;97.41;98970.73;4330441;80;21075;-81
2021/09/20 03:17:58;;;;;;;19.15;12.35;;;;;;;10.33;97.58;98972.48;4197063;83;21056;-81
2021/09/20 03:24:01;;;;;;;22.20;13.32;;;;;;;10.35;97.60;98970.93;4186851;83;21041;-82
2021/09/20 03:30:06;;;;;;;21.25;12.98;;;;;;;10.36;97.53;98976.62;4192811;83;21071;-81
2021/09/20 03:36:08;;;;;;;20.23;14.10;;;;;;;10.35;97.51;98982.48;4319475;80;21058;-82
2021/09/20 03:42:09;;;;;;;22.00;14.03;;;;;;;10.35;97.48;98979.14;4301489;80;21048;-82
2021/09/20 03:48:10;;;;;;;23.00;14.50;;;;;;;10.35;97.51;98983.25;4249037;80;33971;-82
2021/09/20 03:54:11;;;;;;;23.98;12.70;;;;;;;10.34;97.54;98983.62;4141581;83;21030;-82
2021/09/20 04:00:14;;;;;;;24.40;13.98;;;;;;;10.34;97.47;98989.09;4133509;83;21090;-82
2021/09/20 04:06:16;;;;;;;23.07;14.28;;;;;;;10.33;97.51;98995.16;4114818;84;21666;-82
2021/09/20 04:12:17;;;;;;;20.88;13.70;;;;;;;10.31;97.35;98992.58;4128445;83;21693;-81
2021/09/20 04:18:26;;;;;;;21.23;14.23;;;;;;;10.31;97.46;98995.31;4123981;84;21054;-81
2021/09/20 04:24:27;;;;;;;24.65;13.55;;;;;;;10.32;97.54;98999.05;4120393;84;21043;-81
2021/09/20 04:30:29;;;;;;;29.15;14.40;;;;;;;10.32;97.53;99004.52;4138133;83;21017;-82
2021/09/20 04:36:30;;;;;;;21.00;13.38;;;;;;;10.32;97.46;99010.59;4130551;83;21078;-82
2021/09/20 04:42:31;;;;;;;19.37;12.85;;;;;;;10.32;97.57;99022.30;4124435;84;21075;-80
2021/09/20 04:48:34;;;;;;;24.18;13.50;;;;;;;10.33;97.45;99022.52;4117500;84;21026;-81
2021/09/20 04:54:35;;;;;;;22.22;13.30;;;;;;;10.31;97.48;99022.10;4141574;84;21815;-82
2021/09/20 05:00:39;;;;;;;21.80;13.08;;;;;;;10.32;97.43;99018.20;4143930;84;21059;-82
2021/09/20 05:06:42;;;;;;;23.47;13.18;;;;;;;10.32;97.43;99025.03;4125128;85;21032;-82
2021/09/20 05:12:46;;;;;;;19.25;12.98;;;;;;;10.34;97.39;99024.66;4119707;84;21114;-82
2021/09/20 05:18:50;;;;;;;19.62;12.98;;;;;;;10.34;97.49;99033.67;4122529;84;21058;-81
2021/09/20 05:24:52;;;;;;;19.02;13.55;;;;;;;10.33;97.38;99038.95;4133717;84;21449;-81
2021/09/20 05:30:53;;;;;;;17.95;10.75;;;;;;;10.31;97.34;99039.09;4104640;84;22260;-82
2021/09/20 05:36:54;;;;;;;17.02;11.93;;;;;;;10.33;97.49;99043.05;4114754;84;21585;-81
2021/09/20 05:42:59;;;;;;;19.90;12.37;;;;;;;10.33;97.30;99049.09;4113360;84;21120;-81
2021/09/20 05:49:01;;;;;;;22.80;13.15;;;;;;;10.36;97.37;99045.04;4127980;84;21075;-81
2021/09/20 05:55:02;;;;;;;19.82;11.45;;;;;;;10.39;97.29;99036.66;4132475;85;21090;-82
2021/09/20 06:01:03;;;;;;;21.00;11.95;;;;;;;10.42;97.20;99043.55;4145865;84;21008;-83
2021/09/20 06:07:06;;;;;;;15.13;11.08;;;;;;;10.51;97.32;99049.52;4122262;84;21045;-82
2021/09/20 06:13:07;;;;;;;18.15;12.40;;;;;;;10.57;97.35;99050.75;4121291;83;21018;-82
2021/09/20 06:19:08;;;;;;;16.62;11.20;;;;;;;10.62;97.19;99050.43;4133945;84;21598;-80
2021/09/20 06:25:10;;;;;;;17.32;10.82;;;;;;;10.66;97.15;99055.95;4121163;84;21071;-80
2021/09/20 06:31:13;;;;;;;13.55;9.38;;;;;;;10.62;96.50;99059.21;4121978;84;21063;-82
2021/09/20 06:37:14;;;;;;;17.98;11.43;;;;;;;10.59;96.57;99059.39;4112662;84;22104;-82
2021/09/20 06:43:16;;;;;;;17.30;12.20;;;;;;;10.56;96.48;99056.03;4108057;85;21043;-82
2021/09/20 06:49:21;;;;;;;18.98;12.28;;;;;;;10.55;96.61;99053.67;4119245;84;21054;-83
2021/09/20 06:55:21;;;;;;;21.37;14.75;;;;;;;10.52;96.70;99062.63;4119767;84;21062;-83
2021/09/20 07:01:22;;;;;;;14.28;10.85;;;;;;;10.32;96.88;99075.66;4134365;85;21034;-83
2021/09/20 07:07:23;;;;;;;10.78;7.62;;;;;;;10.15;96.72;99076.80;4115733;84;21083;-82
2021/09/20 07:13:25;;;;;;;11.55;8.23;;;;;;;9.99;96.72;99083.75;4100341;85;20973;-83
2021/09/20 07:19:26;;;;;;;12.20;8.73;;;;;;;10.00;97.27;99086.72;4111804;83;21095;-82
2021/09/20 07:25:27;;;;;;;15.03;9.45;;;;;;;9.92;96.92;99090.50;4131033;84;21062;-83
2021/09/20 07:31:28;;;;;;;12.37;9.08;;;;;;;9.85;96.97;99097.81;4122057;84;21621;-82
2021/09/20 07:37:29;;;;;;;15.32;9.05;;;;;;;9.81;96.94;99108.69;4120527;84;21102;-82
2021/09/20 07:43:31;;;;;;;34.15;23.35;;;;;;;9.87;97.08;99106.41;4119096;84;21122;-84
2021/09/20 07:49:32;;;;;;;15.75;8.48;;;;;;;9.90;97.21;99101.00;4109721;84;21051;-85
2021/09/20 07:55:35;;;;;;;12.18;8.33;;;;;;;10.05;97.83;99108.28;4120768;84;21031;-80
2021/09/20 08:01:36;;;;;;;11.18;7.95;;;;;;;10.19;97.75;99102.25;4122384;84;21082;-82
2021/09/20 08:07:37;;;;;;;8.75;7.05;;;;;;;10.32;97.89;99118.06;4119579;84;20981;-82
2021/09/20 08:13:39;;;;;;;11.45;8.05;;;;;;;10.49;97.74;99109.30;4133437;84;21088;-82
2021/09/20 08:19:41;;;;;;;10.32;8.18;;;;;;;10.61;97.31;99119.23;4124794;84;21103;-82
2021/09/20 08:25:43;;;;;;;10.63;8.05;;;;;;;10.70;96.80;99126.59;4094926;84;21050;-81
2021/09/20 08:31:45;;;;;;;12.05;7.78;;;;;;;10.79;96.77;99123.77;4121899;84;21027;-82
2021/09/20 08:37:48;;;;;;;11.08;7.20;;;;;;;10.91;96.50;99127.66;4140268;82;32680;-82
2021/09/20 08:43:51;;;;;;;9.18;6.72;;;;;;;10.95;96.05;99132.58;4205851;82;21990;-82
2021/09/20 08:49:53;;;;;;;11.08;6.92;;;;;;;11.01;95.70;99128.91;4186410;82;21020;-82
2021/09/20 08:55:54;;;;;;;9.65;6.40;;;;;;;11.13;95.33;99139.63;4175876;82;21546;-83
2021/09/20 09:01:57;;;;;;;9.78;6.10;;;;;;;11.20;94.10;99134.22;4111222;84;21042;-82
2021/09/20 09:08:05;;;;;;;7.72;6.08;;;;;;;11.25;93.61;99133.09;4122686;84;21157;-81
2021/09/20 09:14:06;;;;;;;8.95;5.67;;;;;;;11.16;93.22;99147.10;4132342;83;21059;-81
2021/09/20 09:20:13;;;;;;;7.83;5.95;;;;;;;10.86;91.52;99166.32;4063223;85;21474;-81
2021/09/20 09:26:21;;;;;;;8.03;5.62;;;;;;;10.36;92.65;99168.75;4095729;84;21587;-81
2021/09/20 09:32:22;;;;;;;9.88;6.15;;;;;;;10.18;92.64;99170.44;4069371;85;20989;-81
2021/09/20 09:38:58;;;;;;;8.88;6.90;;;;;;;10.11;92.67;99174.42;4061463;85;21071;-81
2021/09/20 09:45:13;;;;;;;11.45;7.20;;;;;;;10.10;92.78;99178.33;4022383;85;21033;-82
2021/09/20 09:51:17;;;;;;;9.00;6.67;;;;;;;10.26;93.09;99178.94;4075779;85;21054;-82
2021/09/20 09:57:23;;;;;;;8.58;5.87;;;;;;;10.46;92.66;99180.44;4070150;85;21365;-81
2021/09/20 10:03:24;;;;;;;6.50;5.80;;;;;;;10.48;92.16;99180.27;4088432;85;21584;-82
2021/09/20 10:09:30;;;;;;;8.33;5.72;;;;;;;10.43;91.80;99175.11;4051030;85;21076;-82
2021/09/20 10:15:32;;;;;;;7.10;5.57;;;;;;;10.51;91.91;99180.89;4057527;86;21076;-81
2021/09/20 10:21:34;;;;;;;6.22;4.95;;;;;;;10.66;91.58;99187.36;4112391;84;21312;-82
2021/09/20 10:27:37;;;;;;;6.97;5.05;;;;;;;10.58;89.49;99199.38;4083479;85;21626;-81
2021/09/20 10:40:37;;;;;;;7.75;5.10;;;;;;;10.20;89.82;99196.83;4129831;84;21084;-81
2021/09/20 10:46:42;;;;;;;8.38;5.62;;;;;;;10.16;89.21;99198.73;4101869;84;21109;-82
2021/09/20 10:53:14;;;;;;;6.70;5.28;;;;;;;10.22;88.73;99207.64;4208565;82;21082;-82
2021/09/20 10:59:18;;;;;;;10.40;5.45;;;;;;;10.43;88.56;99210.69;4211449;82;21502;-81
2021/09/20 11:05:30;;;;;;;5.28;3.70;;;;;;;10.74;88.00;99206.23;4206655;82;21119;-83
2021/09/20 11:11:42;;;;;;;3.22;2.20;;;;;;;10.91;85.23;99213.12;4218929;82;21524;-82
2021/09/20 11:17:47;;;;;;;1.62;1.32;;;;;;;10.79;85.24;99222.95;4202634;82;21044;-81
2021/09/20 11:23:49;;;;;;;3.15;1.00;;;;;;;10.74;83.27;99219.92;4190608;82;21535;-82
2021/09/20 11:29:55;;;;;;;3.95;1.12;;;;;;;10.51;81.46;99240.31;4116923;84;21130;-82
2021/09/20 11:35:57;;;;;;;3.50;1.33;;;;;;;10.27;82.15;99242.10;4038985;85;21047;-81
2021/09/20 11:42:00;;;;;;;1.80;1.00;;;;;;;10.45;81.77;99245.33;4102926;84;21061;-82
2021/09/20 11:48:10;;;;;;;5.00;1.12;;;;;;;10.49;79.57;99260.44;4092183;85;21092;-81
2021/09/20 11:54:34;;;;;;;1.85;0.80;;;;;;;10.42;79.86;99262.48;4115010;84;21363;-82
2021/09/20 12:00:41;;;;;;;1.37;0.90;;;;;;;10.31;80.07;99267.56;4074157;85;21104;-82
2021/09/20 12:06:43;;;;;;;1.65;1.15;;;;;;;10.33;80.88;99267.99;4059787;85;21053;-82
2021/09/20 12:12:50;;;;;;;1.50;1.00;;;;;;;10.41;79.89;99266.95;4074898;84;21069;-81
2021/09/20 12:19:00;;;;;;;3.83;1.32;;;;;;;10.50;80.36;99270.22;4076854;84;21123;-80
2021/09/20 12:25:31;;;;;;;2.05;1.10;;;;;;;10.56;79.92;99270.11;4063927;85;21195;-81
2021/09/20 12:31:44;;;;;;;3.92;1.20;;;;;;;10.53;79.78;99267.55;4084148;85;21607;-81
2021/09/20 12:37:46;;;;;;;1.77;0.93;;;;;;;10.72;79.50;99270.19;4058364;85;21657;-81
2021/09/20 12:43:51;;;;;;;2.60;1.10;;;;;;;10.95;79.92;99270.91;4074542;85;21646;-81
2021/09/20 12:50:09;;;;;;;1.82;1.17;;;;;;;11.12;79.37;99283.84;4136952;84;21110;-81
2021/09/20 12:56:13;;;;;;;2.20;1.10;;;;;;;11.04;79.11;99286.48;4202317;82;21024;-82
2021/09/20 13:02:15;;;;;;;1.55;1.00;;;;;;;10.99;79.25;99287.39;4165164;82;21063;-81
2021/09/20 13:08:17;;;;;;;3.37;1.45;;;;;;;10.99;79.19;99290.90;4178348;82;21642;-81
2021/09/20 13:14:23;;;;;;;7.75;1.10;;;;;;;11.00;79.51;99293.88;4203935;82;21057;-82
2021/09/20 13:20:33;;;;;;;2.37;1.30;;;;;;;11.03;79.42;99296.44;4209160;82;21476;-81
2021/09/20 13:26:39;;;;;;;1.40;1.30;;;;;;;11.03;79.43;99290.39;4208264;82;21186;-83
2021/09/20 13:32:40;;;;;;;3.30;1.15;;;;;;;11.07;79.56;99290.45;4199800;82;21054;-80
2021/09/20 13:38:45;;;;;;;1.47;1.20;;;;;;;11.12;79.60;99287.95;4198683;82;21106;-81
2021/09/20 13:44:48;;;;;;;2.27;1.40;;;;;;;11.08;79.42;99294.18;4182460;82;22304;-82
2021/09/20 13:50:50;;;;;;;3.30;1.40;;;;;;;11.09;79.77;99294.95;4201270;82;21563;-81
2021/09/20 13:56:51;;;;;;;4.85;1.37;;;;;;;11.17;80.06;99293.89;4199999;82;21506;-82
2021/09/20 14:02:53;;;;;;;3.75;1.80;;;;;;;11.26;79.72;99299.87;4169850;82;22292;-81
2021/09/20 14:08:55;;;;;;;4.22;2.12;;;;;;;11.22;79.15;99294.14;4213040;82;21049;-83
2021/09/20 14:14:56;;;;;;;6.83;2.83;;;;;;;11.18;79.40;99300.97;4205206;82;21063;-81
2021/09/20 14:20:57;;;;;;;8.45;3.17;;;;;;;11.18;79.67;99300.17;4189393;82;21075;-82
2021/09/20 14:26:58;;;;;;;10.63;3.67;;;;;;;11.23;79.92;99302.59;4220028;82;21601;-81
2021/09/20 14:33:00;;;;;;;7.95;4.10;;;;;;;11.20;79.57;99304.70;4215136;82;21047;-82
2021/09/20 14:39:02;;;;;;;7.12;4.47;;;;;;;11.20;79.95;99309.59;4186680;82;21557;-81
2021/09/20 14:45:06;;;;;;;6.37;4.70;;;;;;;11.18;79.76;99310.56;4214085;82;21035;-82
2021/09/20 14:51:08;;;;;;;7.60;4.35;;;;;;;11.14;79.96;99324.77;4207190;82;21036;-83
2021/09/20 14:57:09;;;;;;;6.78;4.45;;;;;;;11.07;79.82;99335.64;4199956;82;21044;-81
2021/09/20 15:03:11;;;;;;;10.08;4.53;;;;;;;11.02;80.07;99330.48;4198860;82;21071;-81
2021/09/20 15:09:14;;;;;;;9.05;4.28;;;;;;;10.96;80.09;99330.59;4179075;82;21027;-81
2021/09/20 15:15:16;;;;;;;9.78;5.40;;;;;;;10.91;80.26;99333.07;4208163;82;21556;-83
2021/09/20 15:21:17;;;;;;;7.78;4.20;;;;;;;10.84;80.36;99338.42;4199591;82;21539;-83
2021/09/20 15:27:19;;;;;;;7.03;4.25;;;;;;;10.74;80.28;99345.89;4207811;82;21044;-82
2021/09/20 15:33:21;;;;;;;8.90;4.85;;;;;;;10.64;80.44;99359.41;4184488;82;21695;-82
2021/09/20 15:39:22;;;;;;;7.83;5.33;;;;;;;10.56;80.73;99365.35;4137082;84;21104;-82
2021/09/20 15:45:28;;;;;;;10.25;4.75;;;;;;;10.49;81.39;99361.11;4126580;84;21190;-82
2021/09/20 15:51:29;;;;;;;18.27;5.83;;;;;;;10.48;81.76;99365.02;4139142;84;21592;-81
2021/09/20 15:57:43;;;;;;;11.63;4.50;;;;;;;10.43;81.95;99370.02;4148989;84;21128;-81
2021/09/20 16:03:44;;;;;;;9.63;4.85;;;;;;;10.44;82.43;99368.85;4141437;84;21010;-81
2021/09/20 16:09:48;;;;;;;13.38;6.00;;;;;;;10.42;82.42;99373.89;4138089;84;21053;-81
2021/09/20 16:15:50;;;;;;;15.53;6.90;;;;;;;10.43;83.06;99379.59;4128017;84;21602;-81
2021/09/20 16:21:52;;;;;;;16.55;6.37;;;;;;;10.40;83.07;99393.41;4153245;84;21476;-83
2021/09/20 16:27:56;;;;;;;9.35;5.47;;;;;;;10.38;83.37;99392.98;4131249;84;21078;-82
2021/09/20 16:33:58;;;;;;;13.55;6.87;;;;;;;10.37;83.60;99399.61;4130393;83;21116;-82
2021/09/20 16:40:01;;;;;;;14.83;5.60;;;;;;;10.32;83.76;99401.28;4151501;84;21079;-82
2021/09/20 16:46:17;;;;;;;18.73;7.50;;;;;;;10.30;84.04;99412.38;4131551;84;21032;-82
2021/09/20 16:52:19;;;;;;;12.43;6.53;;;;;;;10.27;83.93;99411.74;4143552;83;21147;-82
2021/09/20 16:58:20;;;;;;;11.18;6.67;;;;;;;10.23;84.32;99410.87;4131193;84;21071;-82
2021/09/20 17:04:21;;;;;;;16.40;6.20;;;;;;;10.25;84.81;99420.31;4145999;84;21079;-82
2021/09/20 17:10:23;;;;;;;9.80;5.90;;;;;;;10.23;84.92;99430.02;4131103;84;21084;-82
2021/09/20 17:16:26;;;;;;;12.65;6.72;;;;;;;10.20;85.08;99432.91;4154161;84;21080;-83
2021/09/20 17:22:27;;;;;;;14.58;7.00;;;;;;;10.18;85.29;99441.28;4130818;84;21024;-82
2021/09/20 17:28:31;;;;;;;15.88;7.65;;;;;;;10.17;85.51;99448.69;4093626;84;21092;-82
2021/09/20 17:34:33;;;;;;;17.12;8.03;;;;;;;10.15;85.68;99461.92;4124049;84;21027;-81
2021/09/20 17:40:38;;;;;;;16.45;9.08;;;;;;;10.14;85.86;99466.39;4136328;84;21532;-82
2021/09/20 17:46:47;;;;;;;18.45;10.13;;;;;;;10.16;86.07;99465.46;4143306;84;21063;-82
2021/09/20 17:52:58;;;;;;;22.95;9.08;;;;;;;10.15;86.30;99473.46;4121988;84;21045;-82
2021/09/20 18:05:39;;;;;;;22.13;11.60;;;;;;;10.13;86.61;99476.53;4060294;86;21048;-82
2021/09/20 18:11:40;;;;;;;18.85;11.57;;;;;;;10.08;86.87;99490.52;4044675;85;21060;-82
2021/09/20 18:17:43;;;;;;;17.57;9.83;;;;;;;10.06;87.08;99502.92;4066844;85;21000;-82
2021/09/20 18:23:47;;;;;;;18.73;11.00;;;;;;;10.01;87.16;99510.03;3994920;87;21005;-82
2021/09/20 18:36:45;;;;;;;21.33;12.20;;;;;;;9.99;87.97;99529.54;4144767;84;21818;-83
2021/09/20 18:42:47;;;;;;;23.65;14.40;;;;;;;9.99;88.31;99535.61;4148930;84;21697;-82
2021/09/20 18:48:49;;;;;;;14.73;9.53;;;;;;;9.90;87.53;99549.47;4135492;84;21071;-84
2021/09/20 18:54:50;;;;;;;15.63;10.82;;;;;;;9.62;87.64;99554.85;4111105;84;21054;-84
2021/09/20 19:00:53;;;;;;;14.85;9.73;;;;;;;9.41;88.55;99568.23;4143072;84;21000;-82
2021/09/20 19:06:54;;;;;;;13.32;9.05;;;;;;;9.33;88.88;99571.93;4137176;84;21044;-82
2021/09/20 19:12:56;;;;;;;13.32;8.05;;;;;;;9.19;89.18;99572.16;4150017;84;20992;-82
2021/09/20 19:19:12;;;;;;;9.73;7.50;;;;;;;9.01;89.15;99579.09;4138650;84;21102;-82
2021/09/20 19:25:11;;;;;;;10.03;7.78;;;;;;;8.92;89.61;99582.00;4147225;84;22086;-82
2021/09/20 19:31:13;;;;;;;12.10;8.43;;;;;;;8.93;90.28;99582.77;4149058;84;21019;-82
2021/09/20 19:37:14;;;;;;;11.88;8.40;;;;;;;8.95;90.78;99597.68;4146366;84;21027;-83
2021/09/20 19:43:16;;;;;;;11.68;8.43;;;;;;;8.93;90.79;99595.86;4144515;84;21059;-82
2021/09/20 19:49:17;;;;;;;12.05;8.85;;;;;;;8.92;91.19;99603.84;4160524;84;21567;-82
2021/09/20 19:55:20;;;;;;;10.23;7.97;;;;;;;8.97;91.40;99609.62;4153894;84;21130;-82
2021/09/20 20:01:22;;;;;;;11.00;8.00;;;;;;;9.00;91.59;99603.45;4132616;83;21045;-82
2021/09/20 20:07:23;;;;;;;11.57;8.20;;;;;;;9.01;91.58;99606.40;4136412;84;21079;-82
2021/09/20 20:13:32;;;;;;;12.20;8.35;;;;;;;9.01;91.90;99614.03;4143145;84;21595;-82
2021/09/20 20:19:33;;;;;;;12.93;10.00;;;;;;;9.02;92.08;99621.66;4149901;84;21026;-81
2021/09/20 20:25:35;;;;;;;13.75;9.85;;;;;;;8.98;92.08;99622.92;4152376;84;21017;-81
2021/09/20 20:31:37;;;;;;;12.15;8.85;;;;;;;8.97;92.46;99624.05;4032745;86;21517;-81
2021/09/20 20:37:38;;;;;;;14.70;9.95;;;;;;;9.00;92.51;99627.47;4028699;86;21984;-81
2021/09/20 20:43:40;;;;;;;12.75;9.50;;;;;;;8.97;92.67;99630.88;4036673;85;21006;-82
2021/09/20 20:49:42;;;;;;;17.80;9.65;;;;;;;9.02;92.79;99639.41;4009930;86;21032;-82
2021/09/20 20:55:44;;;;;;;12.30;9.35;;;;;;;9.04;93.02;99642.00;4065731;86;21540;-82
2021/09/20 21:01:45;;;;;;;12.33;9.43;;;;;;;9.02;92.85;99651.70;4058551;85;21014;-82
2021/09/20 21:07:46;;;;;;;14.45;9.40;;;;;;;8.99;92.88;99655.91;4062913;86;21526;-83
2021/09/20 21:13:47;;;;;;;13.20;9.58;;;;;;;8.98;92.95;99664.44;4060478;85;20980;-82
2021/09/20 21:19:49;;;;;;;15.10;9.63;;;;;;;9.00;93.40;99668.44;4043648;86;21059;-83
2021/09/20 21:25:51;;;;;;;15.32;10.23;;;;;;;9.04;93.56;99676.70;4048917;85;21051;-82
2021/09/20 21:31:53;;;;;;;17.75;10.28;;;;;;;9.01;93.12;99678.77;4056780;85;22058;-82
2021/09/20 21:37:56;;;;;;;13.08;9.30;;;;;;;8.95;93.39;99684.25;4069152;86;21007;-83
2021/09/20 21:43:57;;;;;;;17.25;9.78;;;;;;;8.82;92.98;99683.50;4075544;85;21491;-82
2021/09/20 21:49:58;;;;;;;11.35;9.23;;;;;;;8.74;93.72;99686.39;4056225;86;21028;-82
2021/09/20 21:55:59;;;;;;;12.75;9.40;;;;;;;8.76;93.22;99696.37;4006794;87;21043;-82
2021/09/20 22:02:01;;;;;;;13.90;9.85;;;;;;;8.74;94.08;99695.95;3997417;87;21523;-82
2021/09/20 22:08:02;;;;;;;16.55;9.85;;;;;;;8.80;94.16;99706.25;4133802;84;21030;-81
2021/09/20 22:14:48;;;;;;;13.88;10.68;;;;;;;8.76;94.00;99716.84;4155854;84;21079;-82
2021/09/20 22:20:51;;;;;;;13.40;9.73;;;;;;;8.78;94.14;99715.38;4134581;84;20995;-82
2021/09/20 22:26:54;;;;;;;13.60;10.03;;;;;;;8.67;93.38;99720.28;4144127;84;21606;-82
2021/09/20 22:32:56;;;;;;;14.47;10.72;;;;;;;8.28;93.45;99716.38;4153843;83;21074;-83
2021/09/20 22:38:59;;;;;;;14.00;11.33;;;;;;;8.08;93.86;99706.33;4145802;84;21548;-82
2021/09/20 22:45:00;;;;;;;16.52;11.25;;;;;;;8.17;94.89;99716.58;4136755;83;21480;-83
2021/09/20 22:51:02;;;;;;;19.27;11.48;;;;;;;8.16;94.30;99710.09;4130566;84;21004;-82
2021/09/20 22:57:07;;;;;;;13.58;10.43;;;;;;;8.15;94.72;99709.85;4155301;84;20984;-82
2021/09/20 23:03:13;;;;;;;15.32;11.43;;;;;;;7.96;94.01;99707.70;4157393;84;21511;-82
2021/09/20 23:09:14;;;;;;;21.95;11.65;;;;;;;7.95;94.66;99708.25;4157084;84;21059;-83
2021/09/20 23:15:15;;;;;;;16.48;12.13;;;;;;;7.90;94.39;99706.33;4141537;84;21028;-82
2021/09/20 23:21:23;;;;;;;17.67;11.63;;;;;;;7.61;94.15;99717.44;4171363;84;21096;-82
2021/09/20 23:27:27;;;;;;;16.25;12.03;;;;;;;7.54;94.38;99717.98;4141412;84;21012;-82
2021/09/20 23:33:28;;;;;;;16.90;12.58;;;;;;;7.42;94.85;99722.02;4048909;86;21030;-82
2021/09/20 23:39:29;;;;;;;14.83;11.25;;;;;;;7.43;94.61;99731.80;4032856;86;21651;-81
2021/09/20 23:45:32;;;;;;;18.25;11.88;;;;;;;7.31;94.02;99738.55;4045072;86;22089;-82
2021/09/20 23:51:33;;;;;;;17.92;11.55;;;;;;;7.07;94.25;99746.64;4043401;86;21017;-81
2021/09/20 23:57:34;;;;;;;16.87;12.07;;;;;;;7.03;94.69;99763.98;4052304;85;21540;-82
